Search for airport 
image banner adimage banner adimage banner ad
image banner ad

KMCE - Merced Rgnl/Macready Field

Located in Merced, United States

ICAO - MCE, IATA - MCE

Data provided by Airmate  

General information

Coordinates: N37°17'5" W120°30'50"
Elevation is 155 feet MSL.
Magnetic variation is 15° East
View others Airports in California

Operational data

Special qualification required
Current time UTC:
Current local time:
Weather
METAR: KMCE 211353Z AUTO 32006KT 10SM CLR 18/12 A2985 RMK AO2 SLP107 T01830122
TAF: KMCE 211120Z 2112/2212 31007KT P6SM SKC
View NOTAMs / SUP AIP / TFR affecting this airport [VIEW]
Communications frequencies: [VIEW]

Runways:

RWY identifierQFULength (ft)Width (ft)SurfaceLDA (ft)
12138°5914150ASPH5914
30318°5914150ASPH5914

Airport contact information

Address: Merced United States

Other aviation service providers

Flight schools

Gateway Air Center

Gateway Air Center

Satellite view of KMCE